Time;durP1;ratioP1;P1;durP2;ratioP2;P2;SDS_P1;SDS_P2;PMS_P1;PMS_P2;Temp;Humidity;BMP_temperature;BMP_pressure;BME280_temperature;BME280_humidity;BME280_pressure;Samples;Min_cycle;Max_cycle;Signal;HPM_P1;HPM_P2
2022/12/15 00:39:57;;;;;;;;;;;;;;;-12.28;78.17;99643.19;4987090;28;20398;-74
2022/12/15 00:42:23;;;;;;;;;;;;;;;-12.31;77.78;99642.47;4979735;28;19918;-75
2022/12/15 00:44:49;;;;;;;;;;;;;;;-12.34;77.19;99643.47;4974083;28;19914;-75
2022/12/15 00:47:15;;;;;;;;;;;;;;;-12.36;77.21;99636.72;4975294;28;20259;-75
2022/12/15 01:22:35;;;;;;;;;;;;;;;-12.13;78.49;99658.94;5012385;28;20292;-75
2022/12/15 01:25:00;;;;;;;;;;;;;;;-12.11;78.92;99662.28;5012313;28;19920;-75
2022/12/15 01:27:26;;;;;;;;;;;;;;;-12.10;77.99;99662.22;5004999;28;19913;-75
2022/12/15 01:29:51;;;;;;;;;;;;;;;-12.07;77.65;99666.41;4992805;28;19918;-75
2022/12/15 01:32:16;;;;;;;;;;;;;;;-12.03;78.45;99667.97;4976230;28;19918;-75
2022/12/15 01:34:41;;;;;;;;;;;;;;;-12.06;76.97;99662.09;4992792;28;19918;-75
2022/12/15 01:37:07;;;;;;;;;;;;;;;-12.06;77.46;99664.69;5008389;28;20501;-75
2022/12/15 01:42:16;;;;;;;;;;;;;;;-12.03;76.96;99659.34;5013493;28;19913;-75
2022/12/15 01:44:43;;;;;;;;;;;;;;;-12.02;76.71;99663.63;5013340;28;20291;-75
2022/12/15 01:47:11;;;;;;;;;;;;;;;-11.96;77.53;99663.31;5013446;28;19948;-76
2022/12/15 01:49:37;;;;;;;;;;;;;;;-11.93;77.90;99665.78;5013450;28;19920;-76
2022/12/15 01:52:04;;;;;;;;;;;;;;;-11.94;77.28;99662.38;5000832;28;19925;-76
2022/12/15 01:54:34;;;;;;;;;;;;;;;-11.94;76.46;99664.09;4993341;28;19981;-75
2022/12/15 01:57:02;;;;;;;;;;;;;;;-11.92;77.16;99668.31;4994144;28;20395;-75
2022/12/15 01:59:31;;;;;;;;;;;;;;;-11.84;77.40;99661.91;5008801;28;20329;-77
2022/12/15 02:01:57;;;;;;;;;;;;;;;-11.79;77.71;99659.91;4993559;28;19913;-75
2022/12/15 02:04:22;;;;;;;;;;;;;;;-11.73;78.08;99659.66;4992364;28;19914;-75
2022/12/15 02:06:48;;;;;;;;;;;;;;;-11.73;76.91;99657.88;4996735;28;19921;-75
2022/12/15 02:09:14;;;;;;;;;;;;;;;-11.72;76.59;99667.34;5013275;28;19913;-74
2022/12/15 02:11:43;;;;;;;;;;;;;;;-11.70;76.50;99668.13;5013117;28;20257;-75
2022/12/15 02:14:10;;;;;;;;;;;;;;;-11.66;76.88;99660.19;5013287;28;20024;-77
2022/12/15 02:16:38;;;;;;;;;;;;;;;-11.62;77.35;99664.31;5015399;28;19929;-74
2022/12/15 02:19:18;;;;;;;;;;;;;;;-11.61;77.46;99664.22;5015355;28;19917;-74
2022/12/15 02:21:44;;;;;;;;;;;;;;;-11.60;76.56;99663.31;5016323;28;19920;-76
2022/12/15 02:24:18;;;;;;;;;;;;;;;-11.56;76.92;99654.50;5012247;28;20239;-74
2022/12/15 02:27:05;;;;;;;;;;;;;;;-11.55;77.32;99657.91;4996970;28;19941;-75
2022/12/15 02:29:31;;;;;;;;;;;;;;;-11.58;76.78;99669.28;4997067;28;19914;-75
2022/12/15 02:32:02;;;;;;;;;;;;;;;-11.60;76.01;99662.50;4997338;28;19914;-74
2022/12/15 02:34:30;;;;;;;;;;;;;;;-11.60;76.86;99671.09;4995729;28;19922;-74
2022/12/15 02:36:59;;;;;;;;;;;;;;;-11.61;76.67;99669.41;4999236;28;20362;-74
2022/12/15 02:39:24;;;;;;;;;;;;;;;-11.63;76.45;99670.41;5016496;28;20255;-75
2022/12/15 02:41:51;;;;;;;;;;;;;;;-11.61;77.45;99673.75;5015473;28;19967;-75
2022/12/15 02:44:20;;;;;;;;;;;;;;;-11.61;77.38;99678.94;5016373;28;19913;-76
2022/12/15 02:46:48;;;;;;;;;;;;;;;-11.64;77.35;99685.09;5015170;28;20368;-75
2022/12/15 02:49:13;;;;;;;;;;;;;;;-11.61;76.91;99686.72;5016055;28;19917;-75
2022/12/15 02:51:38;;;;;;;;;;;;;;;-11.59;77.15;99688.31;5016387;28;19932;-75
2022/12/15 02:54:07;;;;;;;;;;;;;;;-11.57;76.75;99678.72;4997842;28;19917;-75
2022/12/15 02:56:35;;;;;;;;;;;;;;;-11.52;77.14;99688.84;5011332;28;19942;-76
2022/12/15 02:59:03;;;;;;;;;;;;;;;-11.46;77.94;99691.16;4997175;28;20369;-76
2022/12/15 03:01:31;;;;;;;;;;;;;;;-11.37;77.62;99692.47;4982090;28;19924;-77
2022/12/15 03:03:58;;;;;;;;;;;;;;;-11.32;78.32;99693.91;4975859;28;20370;-77
2022/12/15 03:06:24;;;;;;;;;;;;;;;-11.24;78.48;99678.00;4976764;28;19949;-77
2022/12/15 03:08:50;;;;;;;;;;;;;;;-11.19;77.96;99694.16;4999347;28;20481;-77
2022/12/15 03:11:15;;;;;;;;;;;;;;;-11.13;77.63;99687.84;5015934;28;19917;-77
2022/12/15 03:13:40;;;;;;;;;;;;;;;-11.06;78.15;99688.38;5015058;28;19949;-77
2022/12/15 03:16:05;;;;;;;;;;;;;;;-11.01;78.15;99688.97;5016308;28;20309;-77
2022/12/15 03:18:31;;;;;;;;;;;;;;;-10.95;77.50;99693.88;5015215;28;20012;-77
2022/12/15 03:20:56;;;;;;;;;;;;;;;-10.92;77.81;99688.53;5000300;28;19933;-77
2022/12/15 03:23:21;;;;;;;;;;;;;;;-10.91;77.59;99692.81;4995427;28;20337;-77
2022/12/15 03:25:47;;;;;;;;;;;;;;;-10.88;78.40;99700.44;4994705;28;19918;-77
2022/12/15 03:28:12;;;;;;;;;;;;;;;-10.90;78.06;99704.84;4994941;28;19914;-76
2022/12/15 03:30:38;;;;;;;;;;;;;;;-10.90;78.18;99707.44;4995216;28;19914;-77
2022/12/15 03:33:03;;;;;;;;;;;;;;;-10.89;78.72;99708.28;4995307;28;19917;-77
2022/12/15 03:35:28;;;;;;;;;;;;;;;-10.93;78.67;99705.00;5011045;28;19917;-76
2022/12/15 03:37:54;;;;;;;;;;;;;;;-10.96;78.88;99705.97;4995875;28;20358;-76
2022/12/15 03:40:19;;;;;;;;;;;;;;;-10.95;79.25;99712.03;4996204;28;19918;-76
2022/12/15 03:42:47;;;;;;;;;;;;;;;-10.96;79.05;99712.94;4994357;28;19914;-76
2022/12/15 03:45:13;;;;;;;;;;;;;;;-10.97;79.10;99712.09;5013089;28;19968;-76
2022/12/15 03:47:41;;;;;;;;;;;;;;;-10.98;78.92;99710.41;5013884;28;19914;-76
2022/12/15 03:50:07;;;;;;;;;;;;;;;-10.99;79.46;99713.94;5013957;28;19921;-76
2022/12/15 03:52:35;;;;;;;;;;;;;;;-10.98;79.06;99713.00;5013195;28;19919;-77
2022/12/15 03:55:01;;;;;;;;;;;;;;;-10.98;79.33;99712.16;4994012;28;19925;-76
2022/12/15 03:57:26;;;;;;;;;;;;;;;-10.96;78.59;99718.13;5006316;28;19917;-77
2022/12/15 03:59:51;;;;;;;;;;;;;;;-10.94;79.22;99714.56;5012466;28;19913;-75
2022/12/15 04:02:17;;;;;;;;;;;;;;;-10.91;79.20;99722.16;4995245;28;19918;-76
2022/12/15 04:04:42;;;;;;;;;;;;;;;-10.87;79.25;99724.59;4995055;28;19920;-76
2022/12/15 04:07:08;;;;;;;;;;;;;;;-10.84;79.51;99727.91;4995365;28;20355;-76
2022/12/15 04:09:33;;;;;;;;;;;;;;;-10.78;79.54;99727.56;4995249;28;19921;-75
2022/12/15 04:12:02;;;;;;;;;;;;;;;-10.72;79.85;99727.25;5003146;28;19921;-76
2022/12/15 04:14:27;;;;;;;;;;;;;;;-10.67;79.58;99736.59;5014631;28;19921;-76
2022/12/15 04:16:52;;;;;;;;;;;;;;;-10.63;79.99;99740.69;5003850;28;19927;-76
2022/12/15 04:22:02;;;;;;;;;;;;;;;-10.67;78.72;99736.59;5014995;28;19920;-75
2022/12/15 05:32:49;;;;;;;;;;;;;;;-11.30;80.18;99803.50;4993972;28;19914;-76
2022/12/15 05:35:14;;;;;;;;;;;;;;;-11.28;80.60;99807.81;4993675;28;20325;-76
2022/12/15 05:37:39;;;;;;;;;;;;;;;-11.25;81.21;99811.09;4994704;28;19920;-76
2022/12/15 05:40:05;;;;;;;;;;;;;;;-11.30;80.28;99820.81;5013799;28;19920;-76
2022/12/15 05:42:30;;;;;;;;;;;;;;;-11.36;80.32;99824.53;5012825;28;19924;-76
2022/12/15 05:44:55;;;;;;;;;;;;;;;-11.42;79.72;99824.84;5013140;28;20047;-76
2022/12/15 05:47:21;;;;;;;;;;;;;;;-11.47;80.24;99826.78;5012210;28;19917;-76
2022/12/15 05:49:46;;;;;;;;;;;;;;;-11.49;81.09;99834.63;5015075;28;19917;-76
2022/12/15 05:52:11;;;;;;;;;;;;;;;-11.58;80.37;99827.25;5017360;28;19941;-77
2022/12/15 05:54:36;;;;;;;;;;;;;;;-11.59;80.24;99838.53;5015617;28;19925;-76
2022/12/15 05:57:02;;;;;;;;;;;;;;;-11.60;80.58;99847.22;5017205;28;20054;-77
2022/12/15 05:59:27;;;;;;;;;;;;;;;-11.61;80.81;99844.69;5017102;28;19924;-76
2022/12/15 06:01:52;;;;;;;;;;;;;;;-11.63;81.20;99846.50;5013347;28;20374;-76
2022/12/15 06:04:18;;;;;;;;;;;;;;;-11.70;80.44;99854.56;5017127;28;20007;-76
2022/12/15 06:06:43;;;;;;;;;;;;;;;-11.70;80.27;99851.09;5016962;28;19914;-75
2022/12/15 06:09:08;;;;;;;;;;;;;;;-11.78;80.04;99858.38;5003688;28;20004;-75
2022/12/15 06:11:34;;;;;;;;;;;;;;;-11.83;80.08;99855.16;4997349;28;19983;-75
2022/12/15 06:13:59;;;;;;;;;;;;;;;-11.81;80.83;99855.91;4996028;28;19941;-76
2022/12/15 06:16:26;;;;;;;;;;;;;;;-11.82;80.37;99867.19;5002867;28;19944;-76
2022/12/15 06:18:53;;;;;;;;;;;;;;;-11.89;79.89;99864.03;5016742;28;19914;-76
2022/12/15 06:21:20;;;;;;;;;;;;;;;-11.93;80.47;99871.13;5016852;28;19913;-76
2022/12/15 06:23:46;;;;;;;;;;;;;;;-11.91;80.70;99874.47;5016707;28;19914;-75
2022/12/15 06:26:13;;;;;;;;;;;;;;;-11.92;81.38;99883.16;5015500;28;19963;-75
2022/12/15 06:28:38;;;;;;;;;;;;;;;-11.89;81.74;99876.97;4999050;28;20004;-76
2022/12/15 06:31:05;;;;;;;;;;;;;;;-11.92;80.89;99883.16;5015428;28;20279;-76
2022/12/15 06:33:31;;;;;;;;;;;;;;;-11.89;81.53;99887.31;5009488;28;20004;-76
2022/12/15 06:36:00;;;;;;;;;;;;;;;-11.90;81.78;99880.53;5015418;28;20012;-76
2022/12/15 06:38:27;;;;;;;;;;;;;;;-11.93;81.53;99885.81;5016198;28;19914;-76
2022/12/15 06:40:57;;;;;;;;;;;;;;;-11.98;81.17;99888.59;4998858;28;19914;-75
2022/12/15 06:43:22;;;;;;;;;;;;;;;-12.02;82.04;99893.97;5014890;28;20246;-75
2022/12/15 06:45:48;;;;;;;;;;;;;;;-12.10;81.60;99899.47;5016258;28;19924;-75
2022/12/15 06:48:14;;;;;;;;;;;;;;;-12.25;80.78;99906.13;5015418;28;20016;-75
2022/12/15 06:50:40;;;;;;;;;;;;;;;-12.33;81.81;99908.16;4996489;28;20343;-75
2022/12/15 06:53:05;;;;;;;;;;;;;;;-12.36;81.64;99909.16;4996265;28;19960;-75
2022/12/15 06:55:31;;;;;;;;;;;;;;;-12.42;81.61;99906.81;4996236;28;20004;-75
2022/12/15 06:57:56;;;;;;;;;;;;;;;-12.44;81.48;99911.22;4996595;28;19918;-75
2022/12/15 07:00:21;;;;;;;;;;;;;;;-12.49;81.49;99913.13;5008279;28;20285;-75
2022/12/15 07:02:47;;;;;;;;;;;;;;;-12.55;81.34;99916.81;4978923;28;19976;-75
2022/12/15 07:05:12;;;;;;;;;;;;;;;-12.45;83.26;99914.69;5002360;28;19917;-75
2022/12/15 07:07:37;;;;;;;;;;;;;;;-12.47;82.92;99916.50;5015849;28;19929;-75
2022/12/15 07:10:03;;;;;;;;;;;;;;;-12.39;83.19;99921.38;5015675;28;19992;-75
2022/12/15 07:12:28;;;;;;;;;;;;;;;-12.33;82.65;99919.38;5015644;28;19940;-75
2022/12/15 07:14:53;;;;;;;;;;;;;;;-12.18;83.37;99911.88;5015492;28;19918;-75
2022/12/15 07:17:19;;;;;;;;;;;;;;;-12.18;83.77;99936.03;4996429;28;19922;-74
2022/12/15 07:19:44;;;;;;;;;;;;;;;-12.23;83.14;99944.88;4978712;28;20386;-76
2022/12/15 07:22:09;;;;;;;;;;;;;;;-12.33;82.77;99952.16;5016945;28;19917;-78
2022/12/15 07:24:34;;;;;;;;;;;;;;;-12.35;82.98;99952.25;5021852;28;19914;-78
2022/12/15 07:27:00;;;;;;;;;;;;;;;-12.39;83.67;99961.00;5021311;28;19914;-78
2022/12/15 07:29:25;;;;;;;;;;;;;;;-12.47;83.31;99965.66;5018832;28;19920;-78
2022/12/15 07:31:50;;;;;;;;;;;;;;;-12.57;83.05;99961.72;5019240;28;19940;-77
2022/12/15 07:34:16;;;;;;;;;;;;;;;-12.63;82.96;99965.38;5014443;28;19924;-77
2022/12/15 07:36:41;;;;;;;;;;;;;;;-12.64;83.59;99971.47;5015661;28;20294;-77
2022/12/15 07:39:06;;;;;;;;;;;;;;;-12.68;83.53;99975.91;5002465;28;19956;-77
2022/12/15 07:41:32;;;;;;;;;;;;;;;-12.73;82.91;99982.16;4997082;28;20300;-77
2022/12/15 07:43:57;;;;;;;;;;;;;;;-12.75;83.06;99989.16;5008065;28;20267;-74
2022/12/15 07:46:24;;;;;;;;;;;;;;;-12.77;83.62;99996.13;5015366;28;19975;-73
2022/12/15 07:48:49;;;;;;;;;;;;;;;-12.78;83.01;100000.41;5015668;28;20396;-77
2022/12/15 07:51:15;;;;;;;;;;;;;;;-12.84;82.62;99999.84;4997754;28;19914;-68
2022/12/15 07:53:40;;;;;;;;;;;;;;;-12.88;82.84;99999.94;5014318;28;20503;-68
2022/12/15 07:56:06;;;;;;;;;;;;;;;-12.83;83.16;99997.19;5014594;28;19921;-68
2022/12/15 07:58:32;;;;;;;;;;;;;;;-12.79;83.90;99997.91;5014829;28;19921;-68
2022/12/15 08:00:58;;;;;;;;;;;;;;;-12.62;85.15;100007.63;5004467;28;20280;-68
2022/12/15 08:03:23;;;;;;;;;;;;;;;-12.55;84.77;100015.09;4995008;28;19996;-68
2022/12/15 08:05:48;;;;;;;;;;;;;;;-12.53;84.45;100009.84;4995250;28;20334;-68
2022/12/15 08:08:14;;;;;;;;;;;;;;;-12.50;84.84;100008.00;4995060;28;19921;-68
2022/12/15 08:10:39;;;;;;;;;;;;;;;-12.48;84.64;100003.59;4993743;28;20345;-68
2022/12/15 08:13:05;;;;;;;;;;;;;;;-12.48;83.99;100010.50;4994566;28;19914;-67
2022/12/15 08:15:30;;;;;;;;;;;;;;;-12.49;84.17;100009.66;4994399;28;19921;-69
2022/12/15 08:17:55;;;;;;;;;;;;;;;-12.52;83.34;100009.78;5008305;28;19972;-69
2022/12/15 08:20:21;;;;;;;;;;;;;;;-12.57;83.57;100016.88;5014415;28;19964;-70
2022/12/15 08:22:46;;;;;;;;;;;;;;;-12.65;83.30;100031.84;5014443;28;19919;-69
2022/12/15 08:25:11;;;;;;;;;;;;;;;-12.75;82.38;100028.75;5014278;28;19913;-69
2022/12/15 08:27:37;;;;;;;;;;;;;;;-12.88;81.69;100028.38;5013999;28;20051;-69
2022/12/15 08:30:02;;;;;;;;;;;;;;;-12.95;82.01;100029.47;5014204;28;19914;-69
2022/12/15 08:32:27;;;;;;;;;;;;;;;-12.96;82.79;100038.16;5014310;28;19918;-70
2022/12/15 08:34:53;;;;;;;;;;;;;;;-12.94;82.45;100036.34;5004233;28;19914;-69
2022/12/15 08:37:18;;;;;;;;;;;;;;;-12.89;83.20;100043.91;4994447;28;19917;-69
2022/12/15 08:39:43;;;;;;;;;;;;;;;-12.87;82.96;100044.72;4994535;28;19914;-67
2022/12/15 08:42:08;;;;;;;;;;;;;;;-12.89;82.34;100049.09;4994502;28;19949;-69
2022/12/15 08:44:34;;;;;;;;;;;;;;;-12.83;82.74;100043.72;4994278;28;20012;-69
2022/12/15 08:46:59;;;;;;;;;;;;;;;-12.80;83.38;100045.34;4994337;28;19914;-69
2022/12/15 08:49:24;;;;;;;;;;;;;;;-12.76;82.96;100052.91;4993272;28;20005;-69
2022/12/15 08:51:50;;;;;;;;;;;;;;;-12.80;83.07;100056.50;4994217;28;19972;-68
2022/12/15 08:54:15;;;;;;;;;;;;;;;-12.80;82.59;100058.25;4992354;28;19921;-68
2022/12/15 08:56:40;;;;;;;;;;;;;;;-12.72;84.06;100062.25;4994083;28;19968;-68
2022/12/15 08:59:06;;;;;;;;;;;;;;;-12.66;84.06;100058.59;4994301;28;19917;-68
2022/12/15 09:01:31;;;;;;;;;;;;;;;-12.59;83.85;100066.97;4979584;28;19914;-68
2022/12/15 09:03:57;;;;;;;;;;;;;;;-12.62;83.17;100075.69;4974806;28;19914;-68
2022/12/15 09:06:26;;;;;;;;;;;;;;;-12.68;82.59;100079.34;4974904;28;20127;-69
2022/12/15 09:08:56;;;;;;;;;;;;;;;-12.76;80.97;100075.34;4974860;28;19914;-69
2022/12/15 09:11:22;;;;;;;;;;;;;;;-12.83;81.69;100079.03;4974905;28;20377;-68
2022/12/15 09:13:47;;;;;;;;;;;;;;;-12.77;83.22;100079.69;4974547;28;19925;-69
2022/12/15 09:16:14;;;;;;;;;;;;;;;-12.90;81.66;100078.44;4974421;28;20283;-68
2022/12/15 09:18:43;;;;;;;;;;;;;;;-12.90;81.66;100086.19;5005198;28;19914;-69
2022/12/15 09:21:10;;;;;;;;;;;;;;;-12.84;82.29;100078.22;4994059;28;19914;-68
2022/12/15 09:23:35;;;;;;;;;;;;;;;-12.87;81.56;100089.50;5004507;28;20380;-68
2022/12/15 09:26:08;;;;;;;;;;;;;;;-12.74;82.56;100083.88;5017628;28;19917;-68
2022/12/15 09:28:34;;;;;;;;;;;;;;;-12.70;81.45;100090.63;5017648;28;19948;-68
2022/12/15 09:31:02;;;;;;;;;;;;;;;-12.60;82.00;100096.31;5008793;28;19964;-68
2022/12/15 09:33:27;;;;;;;;;;;;;;;-12.74;82.48;100058.03;4997692;28;19918;-69
2022/12/15 09:35:53;;;;;;;;;;;;;;;-12.54;81.96;100094.34;4997551;28;20311;-68
2022/12/15 09:38:18;;;;;;;;;;;;;;;-12.52;82.38;100107.22;4997814;28;20009;-68
2022/12/15 09:40:43;;;;;;;;;;;;;;;-12.51;81.61;100107.16;4997765;28;20001;-68
2022/12/15 09:43:10;;;;;;;;;;;;;;;-12.37;82.52;100105.81;4997004;28;19926;-68
2022/12/15 09:45:42;;;;;;;;;;;;;;;-12.34;82.38;100116.06;4997778;28;20011;-68
2022/12/15 09:48:17;;;;;;;;;;;;;;;-12.34;81.67;100116.06;4997278;28;19933;-68
2022/12/15 09:50:45;;;;;;;;;;;;;;;-12.35;81.36;100114.34;4997415;28;19924;-68
2022/12/15 09:53:12;;;;;;;;;;;;;;;-12.29;80.94;100119.31;4996911;28;20052;-68
2022/12/15 09:55:37;;;;;;;;;;;;;;;-12.24;80.78;100116.53;4997465;28;19945;-68
2022/12/15 09:58:25;;;;;;;;;;;;;;;-12.21;80.73;100119.03;4997548;28;19914;-67
2022/12/15 10:00:54;;;;;;;;;;;;;;;-12.15;81.04;100121.38;4997340;28;19956;-68
2022/12/15 10:03:40;;;;;;;;;;;;;;;-12.10;81.71;100127.22;4997395;28;19913;-68
2022/12/15 10:06:14;;;;;;;;;;;;;;;-12.08;81.11;100123.66;4997295;28;19914;-68
2022/12/15 10:08:42;;;;;;;;;;;;;;;-12.10;80.23;100133.22;4997227;28;20013;-68
2022/12/15 10:11:10;;;;;;;;;;;;;;;-11.97;80.87;100133.59;4997176;28;20058;-68
2022/12/15 10:13:46;;;;;;;;;;;;;;;-11.85;81.42;100141.78;4996918;28;19924;-68
2022/12/15 10:16:19;;;;;;;;;;;;;;;-11.83;80.16;100138.22;4997042;28;19971;-68
2022/12/15 10:18:56;;;;;;;;;;;;;;;-11.72;80.79;100141.25;5007901;28;19941;-69
2022/12/15 10:21:25;;;;;;;;;;;;;;;-11.59;81.02;100141.56;5016389;28;20008;-68
2022/12/15 10:23:50;;;;;;;;;;;;;;;-11.49;80.09;100142.91;5015407;28;19913;-69
2022/12/15 10:26:21;;;;;;;;;;;;;;;-11.40;80.54;100146.03;5015477;28;19920;-68
2022/12/15 10:29:14;;;;;;;;;;;;;;;-11.39;79.41;100139.94;4996835;28;20057;-68
2022/12/15 10:31:53;;;;;;;;;;;;;;;-11.37;78.63;100145.91;4995367;28;20329;-68
2022/12/15 10:34:28;;;;;;;;;;;;;;;-11.31;78.82;100143.06;4996784;28;19925;-68
2022/12/15 10:36:55;;;;;;;;;;;;;;;-11.20;79.05;100140.84;4996816;28;19965;-68
2022/12/15 10:39:20;;;;;;;;;;;;;;;-11.12;79.25;100148.34;4996781;28;19914;-68
2022/12/15 10:42:05;;;;;;;;;;;;;;;-11.11;79.33;100145.66;4996709;28;19914;-68
2022/12/15 10:44:35;;;;;;;;;;;;;;;-11.01;78.52;100142.69;4996302;28;19914;-68
2022/12/15 10:47:07;;;;;;;;;;;;;;;-10.95;78.44;100145.03;4996468;28;19972;-68
2022/12/15 10:49:32;;;;;;;;;;;;;;;-10.91;78.68;100144.81;4996466;28;19933;-68
2022/12/15 10:52:01;;;;;;;;;;;;;;;-10.82;78.77;100150.53;4996700;28;19913;-68
2022/12/15 10:54:32;;;;;;;;;;;;;;;-10.80;78.94;100138.34;4995920;28;19918;-68
2022/12/15 10:56:59;;;;;;;;;;;;;;;-10.82;78.88;100135.81;4996166;28;19917;-68
2022/12/15 10:59:27;;;;;;;;;;;;;;;-10.71;79.58;100148.34;4996438;28;19918;-68
2022/12/15 11:01:53;;;;;;;;;;;;;;;-10.62;79.35;100137.56;4996349;28;19921;-68
2022/12/15 11:04:25;;;;;;;;;;;;;;;-10.65;78.86;100135.09;4996325;28;20381;-68
2022/12/15 11:06:54;;;;;;;;;;;;;;;-10.66;77.56;100135.16;4996213;28;19914;-68
2022/12/15 11:09:23;;;;;;;;;;;;;;;-10.60;76.90;100138.31;4996119;28;20354;-68
2022/12/15 11:14:46;;;;;;;;;;;;;;;-10.46;76.79;100134.28;4996017;28;19922;-68
2022/12/15 11:17:19;;;;;;;;;;;;;;;-10.40;76.53;100137.44;5014130;28;21294;-68
2022/12/15 11:19:48;;;;;;;;;;;;;;;-10.02;75.04;100137.41;5015833;28;19968;-68
2022/12/15 11:22:14;;;;;;;;;;;;;;;-8.58;72.24;100134.69;5002944;28;19918;-68
2022/12/15 11:25:01;;;;;;;;;;;;;;;-7.21;69.44;100145.41;4994510;28;19960;-68
2022/12/15 11:27:26;;;;;;;;;;;;;;;-6.14;63.72;100129.50;4995690;28;19961;-68
2022/12/15 11:30:09;;;;;;;;;;;;;;;-5.42;61.74;100141.53;4996260;28;19914;-68
2022/12/15 11:32:36;;;;;;;;;;;;;;;-4.40;59.69;100131.22;4995884;28;19933;-68
2022/12/15 11:35:02;;;;;;;;;;;;;;;-3.95;56.52;100136.78;4995695;28;20071;-68
2022/12/15 11:37:33;;;;;;;;;;;;;;;-3.82;56.26;100128.06;4995568;28;20374;-68
2022/12/15 11:40:17;;;;;;;;;;;;;;;-4.41;56.18;100132.16;4995766;28;19917;-68
2022/12/15 11:42:51;;;;;;;;;;;;;;;-5.68;59.20;100141.44;4995733;28;19996;-68
2022/12/15 11:45:36;;;;;;;;;;;;;;;-5.57;61.24;100135.50;4995275;28;20309;-68
2022/12/15 11:48:18;;;;;;;;;;;;;;;-4.73;62.26;100136.97;4995394;28;19914;-68
2022/12/15 11:50:46;;;;;;;;;;;;;;;-4.22;58.84;100144.81;4995319;28;19924;-69
2022/12/15 11:53:30;;;;;;;;;;;;;;;-4.20;58.64;100137.66;4995124;28;19917;-69
2022/12/15 11:56:02;;;;;;;;;;;;;;;-3.89;56.60;100143.41;4995227;28;19922;-68
2022/12/15 11:58:51;;;;;;;;;;;;;;;-3.57;56.35;100135.81;4995424;28;20431;-69
2022/12/15 12:01:35;;;;;;;;;;;;;;;-3.64;56.22;100137.25;4974240;28;20305;-68
2022/12/15 12:04:09;;;;;;;;;;;;;;;-2.93;55.49;100130.25;4975669;28;19918;-68
2022/12/15 12:06:53;;;;;;;;;;;;;;;-2.35;54.26;100134.66;4975379;28;20031;-68
2022/12/15 12:09:24;;;;;;;;;;;;;;;-2.24;52.76;100136.47;4975725;28;19937;-68
2022/12/15 12:12:12;;;;;;;;;;;;;;;-2.53;52.63;100135.13;4986251;28;19918;-68
2022/12/15 12:14:55;;;;;;;;;;;;;;;-2.86;53.09;100129.78;5014538;28;19918;-68
2022/12/15 12:17:21;;;;;;;;;;;;;;;-3.01;55.27;100131.78;5014219;28;19975;-68
2022/12/15 12:19:51;;;;;;;;;;;;;;;-3.04;54.16;100127.59;5005301;28;19914;-68
2022/12/15 12:22:28;;;;;;;;;;;;;;;-3.06;53.50;100132.13;4995286;28;19949;-68
2022/12/15 12:25:08;;;;;;;;;;;;;;;-3.79;56.22;100136.56;4994742;28;20417;-68
2022/12/15 12:27:54;;;;;;;;;;;;;;;-4.70;59.42;100145.47;4994716;28;19914;-68
2022/12/15 12:30:24;;;;;;;;;;;;;;;-5.29;60.84;100151.09;4994794;28;19914;-68
2022/12/15 12:32:50;;;;;;;;;;;;;;;-5.75;61.39;100148.81;4994623;28;19920;-68
2022/12/15 12:35:20;;;;;;;;;;;;;;;-6.09;63.43;100142.28;4994384;28;19917;-67
2022/12/15 12:37:55;;;;;;;;;;;;;;;-6.33;65.01;100142.00;4994769;28;20297;-68
2022/12/15 12:40:27;;;;;;;;;;;;;;;-6.58;64.32;100153.94;4994674;28;19953;-67
2022/12/15 12:42:57;;;;;;;;;;;;;;;-6.71;65.61;100160.84;4994653;28;19913;-67
2022/12/15 12:45:29;;;;;;;;;;;;;;;-6.89;66.36;100152.31;4994569;28;20000;-68
2022/12/15 12:47:56;;;;;;;;;;;;;;;-7.05;67.42;100161.03;4994334;28;20059;-69
2022/12/15 12:50:23;;;;;;;;;;;;;;;-7.23;66.38;100175.97;4994305;28;19914;-69
2022/12/15 12:52:52;;;;;;;;;;;;;;;-7.38;68.13;100187.28;4993774;28;19918;-69
2022/12/15 12:55:34;;;;;;;;;;;;;;;-7.51;67.06;100181.06;4994037;28;19922;-69
2022/12/15 12:57:59;;;;;;;;;;;;;;;-7.58;68.75;100177.94;4993482;28;20342;-69
2022/12/15 13:00:26;;;;;;;;;;;;;;;-7.61;70.02;100178.97;4988478;28;19922;-68
2022/12/15 13:02:51;;;;;;;;;;;;;;;-7.65;69.80;100177.47;4989802;28;19920;-69
2022/12/15 13:05:25;;;;;;;;;;;;;;;-7.71;70.21;100177.78;4974722;28;20017;-68
2022/12/15 13:08:03;;;;;;;;;;;;;;;-7.77;70.29;100175.53;4981132;28;19918;-69
2022/12/15 13:10:29;;;;;;;;;;;;;;;-7.79;70.16;100187.81;5013721;28;20346;-69
2022/12/15 13:12:58;;;;;;;;;;;;;;;-7.84;69.79;100185.44;5013935;28;19951;-69
2022/12/15 13:15:27;;;;;;;;;;;;;;;-7.90;70.81;100190.16;5009283;28;19968;-69
2022/12/15 13:18:10;;;;;;;;;;;;;;;-7.99;70.73;100187.09;5007149;28;19917;-68
2022/12/15 13:20:36;;;;;;;;;;;;;;;-8.07;70.68;100184.06;5013658;28;20044;-68
2022/12/15 13:23:20;;;;;;;;;;;;;;;-8.14;71.94;100174.06;5013551;28;19983;-69
2022/12/15 13:26:05;;;;;;;;;;;;;;;-8.22;72.35;100171.88;5013495;28;19914;-69
2022/12/15 13:28:33;;;;;;;;;;;;;;;-8.24;72.63;100179.75;5009469;28;19913;-69
2022/12/15 13:31:11;;;;;;;;;;;;;;;-8.27;72.79;100179.91;5013483;28;19913;-69
2022/12/15 13:33:48;;;;;;;;;;;;;;;-8.40;74.18;100197.94;5013146;28;19917;-69
2022/12/15 13:36:32;;;;;;;;;;;;;;;-8.39;73.97;100198.81;5013253;28;20374;-69
2022/12/15 13:38:58;;;;;;;;;;;;;;;-8.44;73.02;100186.03;5003034;28;19925;-69
2022/12/15 13:41:23;;;;;;;;;;;;;;;-8.47;73.85;100180.97;4993622;28;20258;-69
2022/12/15 13:43:50;;;;;;;;;;;;;;;-8.57;73.18;100185.81;4993937;28;19914;-69
2022/12/15 13:46:19;;;;;;;;;;;;;;;-8.63;73.86;100183.53;4993450;28;20011;-69
2022/12/15 13:48:46;;;;;;;;;;;;;;;-8.68;73.48;100180.31;4993634;28;20259;-69
2022/12/15 13:51:20;;;;;;;;;;;;;;;-8.67;74.31;100182.03;4993537;28;19921;-69
2022/12/15 13:53:47;;;;;;;;;;;;;;;-8.67;74.28;100183.75;4993069;28;19949;-69
2022/12/15 13:56:18;;;;;;;;;;;;;;;-8.69;74.36;100191.69;4993709;28;20269;-69
2022/12/15 13:58:47;;;;;;;;;;;;;;;-8.66;73.52;100182.84;4993657;28;19917;-69
2022/12/15 14:01:20;;;;;;;;;;;;;;;-8.63;74.28;100185.31;4981854;28;19914;-69
2022/12/15 14:03:57;;;;;;;;;;;;;;;-8.64;73.93;100192.25;4975189;28;20386;-69
2022/12/15 14:06:23;;;;;;;;;;;;;;;-8.65;74.56;100198.41;5013301;28;19921;-69
2022/12/15 14:08:49;;;;;;;;;;;;;;;-8.65;74.69;100201.00;5013169;28;19913;-69
2022/12/15 14:11:21;;;;;;;;;;;;;;;-8.64;74.76;100205.28;5015847;28;19941;-69
2022/12/15 14:13:46;;;;;;;;;;;;;;;-8.65;74.66;100215.78;4996864;28;19949;-69
2022/12/15 14:16:16;;;;;;;;;;;;;;;-8.62;75.44;100208.63;4996726;28;19980;-69
2022/12/15 14:18:42;;;;;;;;;;;;;;;-8.58;75.10;100207.59;5011717;28;19913;-69
2022/12/15 14:21:25;;;;;;;;;;;;;;;-8.50;76.12;100208.97;5015186;28;19979;-69
2022/12/15 14:23:51;;;;;;;;;;;;;;;-8.48;75.96;100197.53;5016979;28;19914;-69
2022/12/15 14:26:17;;;;;;;;;;;;;;;-8.47;76.31;100206.19;5016561;28;19913;-69
2022/12/15 14:28:44;;;;;;;;;;;;;;;-8.47;76.78;100206.19;5016376;28;19944;-69
2022/12/15 14:31:18;;;;;;;;;;;;;;;-8.49;76.53;100208.03;5016541;28;19913;-69
2022/12/15 14:33:44;;;;;;;;;;;;;;;-8.56;75.54;100210.13;5016423;28;19925;-69
2022/12/15 14:36:12;;;;;;;;;;;;;;;-8.55;76.33;100214.38;4998347;28;19914;-69
2022/12/15 14:38:45;;;;;;;;;;;;;;;-8.55;76.47;100218.75;4996676;28;20017;-69
2022/12/15 14:41:21;;;;;;;;;;;;;;;-8.56;76.32;100225.72;4996563;28;19921;-69
2022/12/15 14:43:48;;;;;;;;;;;;;;;-8.55;77.05;100209.19;4996277;28;20013;-69
2022/12/15 14:46:15;;;;;;;;;;;;;;;-8.54;77.09;100218.69;4996545;28;20325;-69
2022/12/15 14:49:07;;;;;;;;;;;;;;;-8.54;77.26;100223.03;4996621;28;19914;-69
2022/12/15 14:51:45;;;;;;;;;;;;;;;-8.55;77.43;100213.56;4995077;28;19922;-69
2022/12/15 14:54:31;;;;;;;;;;;;;;;-8.55;77.32;100217.00;4995818;28;20362;-69
2022/12/15 14:57:01;;;;;;;;;;;;;;;-8.53;77.89;100225.56;4996179;28;19914;-69
2022/12/15 14:59:30;;;;;;;;;;;;;;;-8.56;77.62;100230.94;4996067;28;19913;-68
2022/12/15 15:02:09;;;;;;;;;;;;;;;-8.60;77.68;100226.78;5010629;28;19941;-69
2022/12/15 15:04:34;;;;;;;;;;;;;;;-8.64;77.42;100225.25;5015773;28;19914;-68
2022/12/15 15:07:13;;;;;;;;;;;;;;;-8.66;77.54;100240.94;5015711;28;20432;-68
2022/12/15 15:09:39;;;;;;;;;;;;;;;-8.70;77.21;100233.38;4997573;28;20285;-68